sensor_id;sensor_type;location;lat;lon;timestamp;P1;durP1;ratioP1;P2;durP2;ratioP2
18224;SDS011;9237;48.590;8.854;2022-07-29T00:00:05;0.60;;;0.60;;
18224;SDS011;9237;48.590;8.854;2022-07-29T00:02:33;0.60;;;0.60;;
18224;SDS011;9237;48.590;8.854;2022-07-29T00:05:00;0.70;;;0.70;;
18224;SDS011;9237;48.590;8.854;2022-07-29T00:07:27;0.50;;;0.50;;
18224;SDS011;9237;48.590;8.854;2022-07-29T00:09:54;0.60;;;0.60;;
18224;SDS011;9237;48.590;8.854;2022-07-29T00:12:22;0.60;;;0.60;;
18224;SDS011;9237;48.590;8.854;2022-07-29T00:14:51;0.60;;;0.60;;
18224;SDS011;9237;48.590;8.854;2022-07-29T00:17:19;0.53;;;0.53;;
18224;SDS011;9237;48.590;8.854;2022-07-29T00:19:46;0.50;;;0.50;;
18224;SDS011;9237;48.590;8.854;2022-07-29T00:22:12;0.60;;;0.60;;
18224;SDS011;9237;48.590;8.854;2022-07-29T00:24:39;0.60;;;0.60;;
18224;SDS011;9237;48.590;8.854;2022-07-29T00:27:06;0.60;;;0.60;;
18224;SDS011;9237;48.590;8.854;2022-07-29T00:29:33;0.60;;;0.60;;
18224;SDS011;9237;48.590;8.854;2022-07-29T00:32:01;0.60;;;0.60;;
18224;SDS011;9237;48.590;8.854;2022-07-29T00:34:29;0.60;;;0.60;;
18224;SDS011;9237;48.590;8.854;2022-07-29T00:37:14;0.60;;;0.60;;
18224;SDS011;9237;48.590;8.854;2022-07-29T00:39:41;0.60;;;0.60;;
18224;SDS011;9237;48.590;8.854;2022-07-29T00:42:08;0.60;;;0.60;;
18224;SDS011;9237;48.590;8.854;2022-07-29T00:44:36;0.60;;;0.60;;
18224;SDS011;9237;48.590;8.854;2022-07-29T00:47:05;0.60;;;0.60;;
18224;SDS011;9237;48.590;8.854;2022-07-29T00:49:32;0.60;;;0.60;;
18224;SDS011;9237;48.590;8.854;2022-07-29T00:52:00;0.60;;;0.60;;
18224;SDS011;9237;48.590;8.854;2022-07-29T00:54:27;0.60;;;0.60;;
18224;SDS011;9237;48.590;8.854;2022-07-29T00:56:54;0.60;;;0.60;;
18224;SDS011;9237;48.590;8.854;2022-07-29T00:59:23;0.60;;;0.60;;
18224;SDS011;9237;48.590;8.854;2022-07-29T01:01:50;0.60;;;0.60;;
18224;SDS011;9237;48.590;8.854;2022-07-29T01:04:19;0.60;;;0.60;;
18224;SDS011;9237;48.590;8.854;2022-07-29T01:06:46;0.60;;;0.60;;
18224;SDS011;9237;48.590;8.854;2022-07-29T01:09:13;0.60;;;0.60;;
18224;SDS011;9237;48.590;8.854;2022-07-29T01:11:41;0.60;;;0.60;;
18224;SDS011;9237;48.590;8.854;2022-07-29T01:14:09;0.60;;;0.60;;
18224;SDS011;9237;48.590;8.854;2022-07-29T01:16:38;0.60;;;0.60;;
18224;SDS011;9237;48.590;8.854;2022-07-29T01:19:13;0.60;;;0.60;;
18224;SDS011;9237;48.590;8.854;2022-07-29T01:22:14;0.60;;;0.60;;
18224;SDS011;9237;48.590;8.854;2022-07-29T01:24:59;0.60;;;0.60;;
18224;SDS011;9237;48.590;8.854;2022-07-29T01:27:41;0.60;;;0.60;;
18224;SDS011;9237;48.590;8.854;2022-07-29T01:30:19;0.60;;;0.60;;
18224;SDS011;9237;48.590;8.854;2022-07-29T01:32:49;0.60;;;0.60;;
18224;SDS011;9237;48.590;8.854;2022-07-29T01:35:22;0.60;;;0.60;;
18224;SDS011;9237;48.590;8.854;2022-07-29T01:37:54;0.60;;;0.60;;
18224;SDS011;9237;48.590;8.854;2022-07-29T01:40:25;0.60;;;0.60;;
18224;SDS011;9237;48.590;8.854;2022-07-29T01:42:57;0.60;;;0.60;;
18224;SDS011;9237;48.590;8.854;2022-07-29T01:45:28;0.60;;;0.60;;
18224;SDS011;9237;48.590;8.854;2022-07-29T01:48:04;0.60;;;0.60;;
18224;SDS011;9237;48.590;8.854;2022-07-29T01:50:37;0.70;;;0.70;;
18224;SDS011;9237;48.590;8.854;2022-07-29T01:53:09;0.70;;;0.70;;
18224;SDS011;9237;48.590;8.854;2022-07-29T01:55:39;0.67;;;0.67;;
18224;SDS011;9237;48.590;8.854;2022-07-29T01:58:09;0.70;;;0.70;;
18224;SDS011;9237;48.590;8.854;2022-07-29T02:00:39;0.70;;;0.70;;
18224;SDS011;9237;48.590;8.854;2022-07-29T02:03:09;0.60;;;0.60;;
18224;SDS011;9237;48.590;8.854;2022-07-29T02:05:37;0.70;;;0.70;;
18224;SDS011;9237;48.590;8.854;2022-07-29T02:08:06;0.70;;;0.70;;
18224;SDS011;9237;48.590;8.854;2022-07-29T02:10:34;0.70;;;0.70;;
18224;SDS011;9237;48.590;8.854;2022-07-29T02:13:03;0.60;;;0.60;;
18224;SDS011;9237;48.590;8.854;2022-07-29T02:15:32;0.70;;;0.70;;
18224;SDS011;9237;48.590;8.854;2022-07-29T02:18:02;0.60;;;0.60;;
18224;SDS011;9237;48.590;8.854;2022-07-29T02:20:33;0.70;;;0.70;;
18224;SDS011;9237;48.590;8.854;2022-07-29T02:23:01;0.70;;;0.70;;
18224;SDS011;9237;48.590;8.854;2022-07-29T02:25:29;0.60;;;0.60;;
18224;SDS011;9237;48.590;8.854;2022-07-29T02:27:57;0.63;;;0.63;;
18224;SDS011;9237;48.590;8.854;2022-07-29T02:30:26;0.70;;;0.70;;
18224;SDS011;9237;48.590;8.854;2022-07-29T02:32:55;0.70;;;0.70;;
18224;SDS011;9237;48.590;8.854;2022-07-29T02:35:24;0.70;;;0.70;;
18224;SDS011;9237;48.590;8.854;2022-07-29T02:37:51;0.70;;;0.70;;
18224;SDS011;9237;48.590;8.854;2022-07-29T02:40:34;0.60;;;0.60;;
18224;SDS011;9237;48.590;8.854;2022-07-29T02:43:04;0.70;;;0.70;;
18224;SDS011;9237;48.590;8.854;2022-07-29T02:45:32;0.70;;;0.70;;
18224;SDS011;9237;48.590;8.854;2022-07-29T02:48:00;0.70;;;0.70;;
18224;SDS011;9237;48.590;8.854;2022-07-29T02:50:34;0.70;;;0.70;;
18224;SDS011;9237;48.590;8.854;2022-07-29T02:53:05;0.70;;;0.70;;
18224;SDS011;9237;48.590;8.854;2022-07-29T02:55:36;0.60;;;0.60;;
18224;SDS011;9237;48.590;8.854;2022-07-29T02:58:07;0.70;;;0.70;;
18224;SDS011;9237;48.590;8.854;2022-07-29T03:00:39;0.70;;;0.70;;
18224;SDS011;9237;48.590;8.854;2022-07-29T03:03:09;0.70;;;0.70;;
18224;SDS011;9237;48.590;8.854;2022-07-29T03:05:40;0.70;;;0.70;;
18224;SDS011;9237;48.590;8.854;2022-07-29T03:08:08;0.70;;;0.70;;
18224;SDS011;9237;48.590;8.854;2022-07-29T03:10:37;0.70;;;0.70;;
18224;SDS011;9237;48.590;8.854;2022-07-29T03:13:06;0.70;;;0.70;;
18224;SDS011;9237;48.590;8.854;2022-07-29T03:15:34;0.70;;;0.70;;
18224;SDS011;9237;48.590;8.854;2022-07-29T03:18:02;0.70;;;0.70;;
18224;SDS011;9237;48.590;8.854;2022-07-29T03:20:29;0.70;;;0.70;;
18224;SDS011;9237;48.590;8.854;2022-07-29T03:22:58;0.70;;;0.70;;
18224;SDS011;9237;48.590;8.854;2022-07-29T03:25:25;0.70;;;0.70;;
18224;SDS011;9237;48.590;8.854;2022-07-29T03:27:52;0.67;;;0.67;;
18224;SDS011;9237;48.590;8.854;2022-07-29T03:30:19;0.63;;;0.63;;
18224;SDS011;9237;48.590;8.854;2022-07-29T03:32:46;0.70;;;0.70;;
18224;SDS011;9237;48.590;8.854;2022-07-29T03:35:12;0.70;;;0.70;;
18224;SDS011;9237;48.590;8.854;2022-07-29T03:37:41;0.70;;;0.70;;
18224;SDS011;9237;48.590;8.854;2022-07-29T03:40:10;0.70;;;0.70;;
18224;SDS011;9237;48.590;8.854;2022-07-29T03:42:39;0.70;;;0.70;;
18224;SDS011;9237;48.590;8.854;2022-07-29T03:45:09;0.70;;;0.70;;
18224;SDS011;9237;48.590;8.854;2022-07-29T03:47:47;0.70;;;0.70;;
18224;SDS011;9237;48.590;8.854;2022-07-29T03:50:18;0.70;;;0.70;;
18224;SDS011;9237;48.590;8.854;2022-07-29T03:52:47;0.70;;;0.70;;
18224;SDS011;9237;48.590;8.854;2022-07-29T03:55:16;0.73;;;0.73;;
18224;SDS011;9237;48.590;8.854;2022-07-29T03:57:44;0.70;;;0.70;;
18224;SDS011;9237;48.590;8.854;2022-07-29T04:00:12;0.70;;;0.70;;
18224;SDS011;9237;48.590;8.854;2022-07-29T04:02:41;0.70;;;0.70;;
18224;SDS011;9237;48.590;8.854;2022-07-29T04:05:13;0.70;;;0.70;;
18224;SDS011;9237;48.590;8.854;2022-07-29T04:07:42;0.70;;;0.70;;
18224;SDS011;9237;48.590;8.854;2022-07-29T04:10:10;0.70;;;0.70;;
18224;SDS011;9237;48.590;8.854;2022-07-29T04:12:39;0.80;;;0.80;;
18224;SDS011;9237;48.590;8.854;2022-07-29T04:15:06;0.70;;;0.70;;
18224;SDS011;9237;48.590;8.854;2022-07-29T04:17:33;0.70;;;0.70;;
18224;SDS011;9237;48.590;8.854;2022-07-29T04:20:00;0.70;;;0.70;;
18224;SDS011;9237;48.590;8.854;2022-07-29T04:22:27;0.70;;;0.70;;
18224;SDS011;9237;48.590;8.854;2022-07-29T04:24:54;0.60;;;0.60;;
18224;SDS011;9237;48.590;8.854;2022-07-29T04:27:21;0.80;;;0.80;;
18224;SDS011;9237;48.590;8.854;2022-07-29T04:29:49;0.70;;;0.70;;
18224;SDS011;9237;48.590;8.854;2022-07-29T04:32:16;0.70;;;0.70;;
18224;SDS011;9237;48.590;8.854;2022-07-29T04:34:43;0.70;;;0.70;;
18224;SDS011;9237;48.590;8.854;2022-07-29T04:37:11;0.70;;;0.70;;
18224;SDS011;9237;48.590;8.854;2022-07-29T04:39:38;0.70;;;0.70;;
18224;SDS011;9237;48.590;8.854;2022-07-29T04:42:05;0.70;;;0.70;;
18224;SDS011;9237;48.590;8.854;2022-07-29T04:44:32;0.70;;;0.70;;
18224;SDS011;9237;48.590;8.854;2022-07-29T04:47:00;0.70;;;0.70;;
18224;SDS011;9237;48.590;8.854;2022-07-29T04:49:27;0.70;;;0.70;;
18224;SDS011;9237;48.590;8.854;2022-07-29T04:51:54;0.60;;;0.60;;
18224;SDS011;9237;48.590;8.854;2022-07-29T04:54:21;0.70;;;0.70;;
18224;SDS011;9237;48.590;8.854;2022-07-29T04:56:48;0.60;;;0.60;;
18224;SDS011;9237;48.590;8.854;2022-07-29T04:59:15;0.70;;;0.70;;
18224;SDS011;9237;48.590;8.854;2022-07-29T05:01:42;0.70;;;0.70;;
18224;SDS011;9237;48.590;8.854;2022-07-29T05:04:10;0.60;;;0.60;;
18224;SDS011;9237;48.590;8.854;2022-07-29T05:06:37;0.70;;;0.70;;
18224;SDS011;9237;48.590;8.854;2022-07-29T05:09:04;0.60;;;0.60;;
18224;SDS011;9237;48.590;8.854;2022-07-29T05:11:30;0.70;;;0.70;;
18224;SDS011;9237;48.590;8.854;2022-07-29T05:13:57;0.70;;;0.70;;
18224;SDS011;9237;48.590;8.854;2022-07-29T05:16:24;0.60;;;0.60;;
18224;SDS011;9237;48.590;8.854;2022-07-29T05:18:51;0.60;;;0.60;;
18224;SDS011;9237;48.590;8.854;2022-07-29T05:21:19;0.63;;;0.63;;
18224;SDS011;9237;48.590;8.854;2022-07-29T05:23:46;0.60;;;0.60;;
18224;SDS011;9237;48.590;8.854;2022-07-29T05:26:13;0.60;;;0.60;;
18224;SDS011;9237;48.590;8.854;2022-07-29T05:28:40;0.60;;;0.60;;
18224;SDS011;9237;48.590;8.854;2022-07-29T05:31:07;0.60;;;0.60;;
18224;SDS011;9237;48.590;8.854;2022-07-29T05:33:34;0.60;;;0.60;;
18224;SDS011;9237;48.590;8.854;2022-07-29T05:36:01;0.60;;;0.60;;
18224;SDS011;9237;48.590;8.854;2022-07-29T05:38:31;0.60;;;0.60;;
18224;SDS011;9237;48.590;8.854;2022-07-29T05:40:58;0.60;;;0.60;;
18224;SDS011;9237;48.590;8.854;2022-07-29T05:43:25;0.60;;;0.60;;
18224;SDS011;9237;48.590;8.854;2022-07-29T05:45:52;0.60;;;0.60;;
18224;SDS011;9237;48.590;8.854;2022-07-29T05:48:20;0.60;;;0.60;;
18224;SDS011;9237;48.590;8.854;2022-07-29T05:50:46;0.60;;;0.60;;
18224;SDS011;9237;48.590;8.854;2022-07-29T05:53:13;0.60;;;0.60;;
18224;SDS011;9237;48.590;8.854;2022-07-29T05:55:42;0.60;;;0.60;;
18224;SDS011;9237;48.590;8.854;2022-07-29T05:58:09;0.60;;;0.60;;
18224;SDS011;9237;48.590;8.854;2022-07-29T06:00:37;0.60;;;0.60;;
18224;SDS011;9237;48.590;8.854;2022-07-29T06:03:04;0.60;;;0.60;;
18224;SDS011;9237;48.590;8.854;2022-07-29T06:05:31;0.60;;;0.60;;
18224;SDS011;9237;48.590;8.854;2022-07-29T06:07:58;0.60;;;0.60;;
18224;SDS011;9237;48.590;8.854;2022-07-29T06:10:25;0.60;;;0.60;;
18224;SDS011;9237;48.590;8.854;2022-07-29T06:12:54;0.50;;;0.50;;
18224;SDS011;9237;48.590;8.854;2022-07-29T06:15:21;0.60;;;0.60;;
18224;SDS011;9237;48.590;8.854;2022-07-29T06:17:48;0.50;;;0.50;;
18224;SDS011;9237;48.590;8.854;2022-07-29T06:20:15;0.50;;;0.50;;
18224;SDS011;9237;48.590;8.854;2022-07-29T06:22:42;0.50;;;0.50;;
18224;SDS011;9237;48.590;8.854;2022-07-29T06:25:09;0.50;;;0.50;;
18224;SDS011;9237;48.590;8.854;2022-07-29T06:27:36;0.50;;;0.50;;
18224;SDS011;9237;48.590;8.854;2022-07-29T06:30:05;0.50;;;0.50;;
18224;SDS011;9237;48.590;8.854;2022-07-29T06:32:33;0.40;;;0.40;;
18224;SDS011;9237;48.590;8.854;2022-07-29T06:35:01;0.50;;;0.50;;
18224;SDS011;9237;48.590;8.854;2022-07-29T06:37:28;0.40;;;0.40;;
18224;SDS011;9237;48.590;8.854;2022-07-29T06:39:55;0.50;;;0.50;;
18224;SDS011;9237;48.590;8.854;2022-07-29T06:42:36;0.50;;;0.50;;
18224;SDS011;9237;48.590;8.854;2022-07-29T06:45:04;0.50;;;0.50;;
18224;SDS011;9237;48.590;8.854;2022-07-29T06:47:32;0.50;;;0.50;;
18224;SDS011;9237;48.590;8.854;2022-07-29T06:49:59;0.50;;;0.50;;
18224;SDS011;9237;48.590;8.854;2022-07-29T06:52:26;0.50;;;0.50;;
18224;SDS011;9237;48.590;8.854;2022-07-29T06:54:52;0.50;;;0.50;;
18224;SDS011;9237;48.590;8.854;2022-07-29T06:57:20;0.50;;;0.50;;
18224;SDS011;9237;48.590;8.854;2022-07-29T06:59:47;0.50;;;0.50;;
18224;SDS011;9237;48.590;8.854;2022-07-29T07:02:15;0.50;;;0.50;;
18224;SDS011;9237;48.590;8.854;2022-07-29T07:04:42;0.50;;;0.50;;
18224;SDS011;9237;48.590;8.854;2022-07-29T07:07:09;0.50;;;0.50;;
18224;SDS011;9237;48.590;8.854;2022-07-29T07:09:36;0.50;;;0.50;;
18224;SDS011;9237;48.590;8.854;2022-07-29T07:12:03;0.50;;;0.50;;
18224;SDS011;9237;48.590;8.854;2022-07-29T07:14:30;0.50;;;0.50;;
18224;SDS011;9237;48.590;8.854;2022-07-29T07:16:57;0.50;;;0.50;;
18224;SDS011;9237;48.590;8.854;2022-07-29T07:19:26;0.50;;;0.50;;
18224;SDS011;9237;48.590;8.854;2022-07-29T07:21:53;0.50;;;0.50;;
18224;SDS011;9237;48.590;8.854;2022-07-29T07:24:20;0.50;;;0.50;;
18224;SDS011;9237;48.590;8.854;2022-07-29T07:26:47;0.43;;;0.43;;
18224;SDS011;9237;48.590;8.854;2022-07-29T07:29:14;0.45;;;0.45;;
18224;SDS011;9237;48.590;8.854;2022-07-29T07:31:41;0.40;;;0.40;;
18224;SDS011;9237;48.590;8.854;2022-07-29T07:34:08;0.50;;;0.50;;
18224;SDS011;9237;48.590;8.854;2022-07-29T07:36:36;0.40;;;0.40;;
18224;SDS011;9237;48.590;8.854;2022-07-29T07:39:03;0.40;;;0.40;;
18224;SDS011;9237;48.590;8.854;2022-07-29T07:41:31;0.40;;;0.40;;
18224;SDS011;9237;48.590;8.854;2022-07-29T07:43:57;0.50;;;0.50;;
18224;SDS011;9237;48.590;8.854;2022-07-29T07:46:25;0.40;;;0.40;;
18224;SDS011;9237;48.590;8.854;2022-07-29T07:48:51;0.40;;;0.40;;
18224;SDS011;9237;48.590;8.854;2022-07-29T07:51:18;0.40;;;0.40;;
18224;SDS011;9237;48.590;8.854;2022-07-29T07:53:46;0.40;;;0.40;;
18224;SDS011;9237;48.590;8.854;2022-07-29T07:56:15;0.40;;;0.40;;
18224;SDS011;9237;48.590;8.854;2022-07-29T07:58:42;0.40;;;0.40;;
18224;SDS011;9237;48.590;8.854;2022-07-29T08:01:09;0.30;;;0.30;;
18224;SDS011;9237;48.590;8.854;2022-07-29T08:03:36;0.40;;;0.40;;
18224;SDS011;9237;48.590;8.854;2022-07-29T08:06:03;0.40;;;0.40;;
18224;SDS011;9237;48.590;8.854;2022-07-29T08:08:31;0.40;;;0.40;;
18224;SDS011;9237;48.590;8.854;2022-07-29T08:10:59;0.40;;;0.40;;
18224;SDS011;9237;48.590;8.854;2022-07-29T08:13:27;0.40;;;0.40;;
18224;SDS011;9237;48.590;8.854;2022-07-29T08:15:55;0.40;;;0.40;;
18224;SDS011;9237;48.590;8.854;2022-07-29T08:18:24;0.35;;;0.35;;
18224;SDS011;9237;48.590;8.854;2022-07-29T08:20:52;0.40;;;0.40;;
18224;SDS011;9237;48.590;8.854;2022-07-29T08:23:19;0.32;;;0.32;;
18224;SDS011;9237;48.590;8.854;2022-07-29T08:25:47;0.30;;;0.30;;
18224;SDS011;9237;48.590;8.854;2022-07-29T08:28:16;0.30;;;0.30;;
18224;SDS011;9237;48.590;8.854;2022-07-29T08:30:44;0.30;;;0.30;;
18224;SDS011;9237;48.590;8.854;2022-07-29T08:33:11;0.30;;;0.30;;
18224;SDS011;9237;48.590;8.854;2022-07-29T08:35:38;0.35;;;0.35;;
18224;SDS011;9237;48.590;8.854;2022-07-29T08:38:05;0.40;;;0.40;;
18224;SDS011;9237;48.590;8.854;2022-07-29T08:40:32;0.30;;;0.30;;
18224;SDS011;9237;48.590;8.854;2022-07-29T08:42:59;0.30;;;0.30;;
18224;SDS011;9237;48.590;8.854;2022-07-29T08:45:32;0.30;;;0.30;;
18224;SDS011;9237;48.590;8.854;2022-07-29T08:48:07;0.30;;;0.30;;
18224;SDS011;9237;48.590;8.854;2022-07-29T08:50:34;0.30;;;0.30;;
18224;SDS011;9237;48.590;8.854;2022-07-29T08:53:01;0.30;;;0.30;;
18224;SDS011;9237;48.590;8.854;2022-07-29T08:55:29;0.30;;;0.30;;
18224;SDS011;9237;48.590;8.854;2022-07-29T08:57:55;0.30;;;0.30;;
18224;SDS011;9237;48.590;8.854;2022-07-29T09:00:24;0.30;;;0.30;;
18224;SDS011;9237;48.590;8.854;2022-07-29T09:02:56;0.30;;;0.30;;
18224;SDS011;9237;48.590;8.854;2022-07-29T09:05:24;0.30;;;0.30;;
18224;SDS011;9237;48.590;8.854;2022-07-29T09:07:52;0.30;;;0.30;;
18224;SDS011;9237;48.590;8.854;2022-07-29T09:10:20;0.20;;;0.20;;
18224;SDS011;9237;48.590;8.854;2022-07-29T09:12:47;0.20;;;0.20;;
18224;SDS011;9237;48.590;8.854;2022-07-29T09:15:14;0.28;;;0.28;;
18224;SDS011;9237;48.590;8.854;2022-07-29T09:17:42;0.20;;;0.20;;
18224;SDS011;9237;48.590;8.854;2022-07-29T09:20:12;0.28;;;0.28;;
18224;SDS011;9237;48.590;8.854;2022-07-29T09:22:40;0.20;;;0.20;;
18224;SDS011;9237;48.590;8.854;2022-07-29T09:25:07;0.30;;;0.30;;
18224;SDS011;9237;48.590;8.854;2022-07-29T09:27:35;0.20;;;0.20;;
18224;SDS011;9237;48.590;8.854;2022-07-29T09:30:03;0.30;;;0.30;;
18224;SDS011;9237;48.590;8.854;2022-07-29T09:32:31;0.30;;;0.30;;
18224;SDS011;9237;48.590;8.854;2022-07-29T09:35:15;0.30;;;0.30;;
18224;SDS011;9237;48.590;8.854;2022-07-29T09:37:43;0.30;;;0.30;;
18224;SDS011;9237;48.590;8.854;2022-07-29T09:40:11;0.30;;;0.30;;
18224;SDS011;9237;48.590;8.854;2022-07-29T09:42:40;0.30;;;0.30;;
18224;SDS011;9237;48.590;8.854;2022-07-29T09:45:08;0.35;;;0.35;;
18224;SDS011;9237;48.590;8.854;2022-07-29T09:47:40;0.30;;;0.30;;
18224;SDS011;9237;48.590;8.854;2022-07-29T09:50:10;0.30;;;0.30;;
18224;SDS011;9237;48.590;8.854;2022-07-29T09:52:45;0.30;;;0.30;;
18224;SDS011;9237;48.590;8.854;2022-07-29T09:55:14;0.20;;;0.20;;
18224;SDS011;9237;48.590;8.854;2022-07-29T09:57:41;0.20;;;0.20;;
18224;SDS011;9237;48.590;8.854;2022-07-29T10:00:10;0.20;;;0.20;;
18224;SDS011;9237;48.590;8.854;2022-07-29T10:02:38;0.20;;;0.20;;
18224;SDS011;9237;48.590;8.854;2022-07-29T10:05:15;0.20;;;0.20;;
18224;SDS011;9237;48.590;8.854;2022-07-29T10:07:48;0.20;;;0.20;;
18224;SDS011;9237;48.590;8.854;2022-07-29T10:10:20;0.20;;;0.20;;
18224;SDS011;9237;48.590;8.854;2022-07-29T10:12:48;0.20;;;0.20;;
18224;SDS011;9237;48.590;8.854;2022-07-29T10:15:17;0.20;;;0.20;;
18224;SDS011;9237;48.590;8.854;2022-07-29T10:17:45;0.20;;;0.20;;
18224;SDS011;9237;48.590;8.854;2022-07-29T10:20:13;0.20;;;0.20;;
18224;SDS011;9237;48.590;8.854;2022-07-29T10:22:40;0.20;;;0.20;;
18224;SDS011;9237;48.590;8.854;2022-07-29T10:25:10;0.20;;;0.20;;
18224;SDS011;9237;48.590;8.854;2022-07-29T10:27:37;0.20;;;0.20;;
18224;SDS011;9237;48.590;8.854;2022-07-29T10:30:05;0.30;;;0.30;;
18224;SDS011;9237;48.590;8.854;2022-07-29T10:32:35;0.40;;;0.40;;
18224;SDS011;9237;48.590;8.854;2022-07-29T10:35:29;0.40;;;0.40;;
18224;SDS011;9237;48.590;8.854;2022-07-29T10:38:10;0.40;;;0.40;;
18224;SDS011;9237;48.590;8.854;2022-07-29T10:40:54;0.40;;;0.40;;
18224;SDS011;9237;48.590;8.854;2022-07-29T10:43:46;0.50;;;0.50;;
18224;SDS011;9237;48.590;8.854;2022-07-29T10:46:15;0.50;;;0.50;;
18224;SDS011;9237;48.590;8.854;2022-07-29T10:54:40;0.50;;;0.50;;
18224;SDS011;9237;48.590;8.854;2022-07-29T10:57:14;0.60;;;0.60;;
18224;SDS011;9237;48.590;8.854;2022-07-29T10:59:51;0.60;;;0.60;;
18224;SDS011;9237;48.590;8.854;2022-07-29T11:02:58;0.60;;;0.60;;
18224;SDS011;9237;48.590;8.854;2022-07-29T11:05:26;0.60;;;0.60;;
18224;SDS011;9237;48.590;8.854;2022-07-29T11:10:51;0.53;;;0.53;;
18224;SDS011;9237;48.590;8.854;2022-07-29T11:16:13;0.50;;;0.50;;
18224;SDS011;9237;48.590;8.854;2022-07-29T11:21:43;0.50;;;0.50;;
18224;SDS011;9237;48.590;8.854;2022-07-29T11:24:12;0.50;;;0.50;;
18224;SDS011;9237;48.590;8.854;2022-07-29T11:26:39;0.50;;;0.50;;
18224;SDS011;9237;48.590;8.854;2022-07-29T11:29:15;0.50;;;0.50;;
18224;SDS011;9237;48.590;8.854;2022-07-29T11:31:45;0.50;;;0.50;;
18224;SDS011;9237;48.590;8.854;2022-07-29T11:34:21;0.50;;;0.50;;
18224;SDS011;9237;48.590;8.854;2022-07-29T11:42:38;0.50;;;0.50;;
18224;SDS011;9237;48.590;8.854;2022-07-29T11:45:18;0.50;;;0.50;;
18224;SDS011;9237;48.590;8.854;2022-07-29T11:47:48;0.50;;;0.50;;
18224;SDS011;9237;48.590;8.854;2022-07-29T11:50:17;0.50;;;0.50;;
18224;SDS011;9237;48.590;8.854;2022-07-29T11:52:53;0.40;;;0.40;;
18224;SDS011;9237;48.590;8.854;2022-07-29T11:55:21;0.40;;;0.40;;
18224;SDS011;9237;48.590;8.854;2022-07-29T11:57:50;0.40;;;0.40;;
18224;SDS011;9237;48.590;8.854;2022-07-29T12:00:24;0.40;;;0.40;;
18224;SDS011;9237;48.590;8.854;2022-07-29T12:02:53;0.40;;;0.40;;
18224;SDS011;9237;48.590;8.854;2022-07-29T12:05:21;0.40;;;0.40;;
18224;SDS011;9237;48.590;8.854;2022-07-29T12:07:58;0.40;;;0.40;;
18224;SDS011;9237;48.590;8.854;2022-07-29T12:10:34;0.40;;;0.40;;
18224;SDS011;9237;48.590;8.854;2022-07-29T12:13:01;0.43;;;0.43;;
18224;SDS011;9237;48.590;8.854;2022-07-29T12:15:29;0.40;;;0.40;;
18224;SDS011;9237;48.590;8.854;2022-07-29T12:17:56;0.40;;;0.40;;
18224;SDS011;9237;48.590;8.854;2022-07-29T12:20:24;0.40;;;0.40;;
18224;SDS011;9237;48.590;8.854;2022-07-29T12:22:52;0.40;;;0.40;;
18224;SDS011;9237;48.590;8.854;2022-07-29T12:25:20;0.50;;;0.50;;
18224;SDS011;9237;48.590;8.854;2022-07-29T12:27:57;0.43;;;0.43;;
18224;SDS011;9237;48.590;8.854;2022-07-29T12:30:33;0.50;;;0.50;;
18224;SDS011;9237;48.590;8.854;2022-07-29T12:33:10;0.50;;;0.50;;
18224;SDS011;9237;48.590;8.854;2022-07-29T12:35:38;0.50;;;0.50;;
18224;SDS011;9237;48.590;8.854;2022-07-29T12:38:06;0.60;;;0.60;;
18224;SDS011;9237;48.590;8.854;2022-07-29T12:40:35;0.50;;;0.50;;
18224;SDS011;9237;48.590;8.854;2022-07-29T12:43:06;0.60;;;0.60;;
18224;SDS011;9237;48.590;8.854;2022-07-29T12:45:38;0.60;;;0.60;;
18224;SDS011;9237;48.590;8.854;2022-07-29T12:48:08;0.70;;;0.70;;
18224;SDS011;9237;48.590;8.854;2022-07-29T12:50:36;0.70;;;0.70;;
18224;SDS011;9237;48.590;8.854;2022-07-29T12:53:19;0.70;;;0.70;;
18224;SDS011;9237;48.590;8.854;2022-07-29T12:55:46;0.63;;;0.63;;
18224;SDS011;9237;48.590;8.854;2022-07-29T12:58:25;0.70;;;0.70;;
18224;SDS011;9237;48.590;8.854;2022-07-29T13:01:04;0.60;;;0.60;;
18224;SDS011;9237;48.590;8.854;2022-07-29T13:03:47;0.70;;;0.70;;
18224;SDS011;9237;48.590;8.854;2022-07-29T13:06:27;0.70;;;0.70;;
18224;SDS011;9237;48.590;8.854;2022-07-29T13:09:06;0.60;;;0.60;;
18224;SDS011;9237;48.590;8.854;2022-07-29T13:11:36;0.60;;;0.60;;
18224;SDS011;9237;48.590;8.854;2022-07-29T13:14:04;0.60;;;0.60;;
18224;SDS011;9237;48.590;8.854;2022-07-29T13:16:35;0.60;;;0.60;;
18224;SDS011;9237;48.590;8.854;2022-07-29T13:19:07;0.60;;;0.60;;
18224;SDS011;9237;48.590;8.854;2022-07-29T13:21:36;0.60;;;0.60;;
18224;SDS011;9237;48.590;8.854;2022-07-29T13:24:05;0.60;;;0.60;;
18224;SDS011;9237;48.590;8.854;2022-07-29T13:26:32;0.60;;;0.60;;
18224;SDS011;9237;48.590;8.854;2022-07-29T13:28:59;0.60;;;0.60;;
18224;SDS011;9237;48.590;8.854;2022-07-29T13:31:26;0.50;;;0.50;;
18224;SDS011;9237;48.590;8.854;2022-07-29T13:33:55;0.50;;;0.50;;
18224;SDS011;9237;48.590;8.854;2022-07-29T13:36:22;0.50;;;0.50;;
18224;SDS011;9237;48.590;8.854;2022-07-29T13:38:49;0.50;;;0.50;;
18224;SDS011;9237;48.590;8.854;2022-07-29T13:41:16;0.50;;;0.50;;
18224;SDS011;9237;48.590;8.854;2022-07-29T13:43:43;0.50;;;0.50;;
18224;SDS011;9237;48.590;8.854;2022-07-29T13:46:10;0.50;;;0.50;;
18224;SDS011;9237;48.590;8.854;2022-07-29T13:48:37;0.50;;;0.50;;
18224;SDS011;9237;48.590;8.854;2022-07-29T13:51:05;0.50;;;0.50;;
18224;SDS011;9237;48.590;8.854;2022-07-29T13:53:32;0.50;;;0.50;;
18224;SDS011;9237;48.590;8.854;2022-07-29T13:55:59;0.50;;;0.50;;
18224;SDS011;9237;48.590;8.854;2022-07-29T13:58:26;0.50;;;0.50;;
18224;SDS011;9237;48.590;8.854;2022-07-29T14:00:53;0.50;;;0.50;;
18224;SDS011;9237;48.590;8.854;2022-07-29T14:03:20;0.50;;;0.50;;
18224;SDS011;9237;48.590;8.854;2022-07-29T14:05:47;0.50;;;0.50;;
18224;SDS011;9237;48.590;8.854;2022-07-29T14:08:15;0.40;;;0.40;;
18224;SDS011;9237;48.590;8.854;2022-07-29T14:10:42;0.40;;;0.40;;
18224;SDS011;9237;48.590;8.854;2022-07-29T14:13:09;0.43;;;0.43;;
18224;SDS011;9237;48.590;8.854;2022-07-29T14:15:36;0.45;;;0.45;;
18224;SDS011;9237;48.590;8.854;2022-07-29T14:18:02;0.50;;;0.50;;
18224;SDS011;9237;48.590;8.854;2022-07-29T14:20:30;0.40;;;0.40;;
18224;SDS011;9237;48.590;8.854;2022-07-29T14:22:57;0.40;;;0.40;;
18224;SDS011;9237;48.590;8.854;2022-07-29T14:25:25;0.40;;;0.40;;
18224;SDS011;9237;48.590;8.854;2022-07-29T14:27:52;0.40;;;0.40;;
18224;SDS011;9237;48.590;8.854;2022-07-29T14:30:19;0.40;;;0.40;;
18224;SDS011;9237;48.590;8.854;2022-07-29T14:32:46;0.40;;;0.40;;
18224;SDS011;9237;48.590;8.854;2022-07-29T14:35:13;0.50;;;0.50;;
18224;SDS011;9237;48.590;8.854;2022-07-29T14:37:40;0.50;;;0.50;;
18224;SDS011;9237;48.590;8.854;2022-07-29T14:40:08;0.47;;;0.47;;
18224;SDS011;9237;48.590;8.854;2022-07-29T14:42:37;0.40;;;0.40;;
18224;SDS011;9237;48.590;8.854;2022-07-29T14:45:05;0.40;;;0.40;;
18224;SDS011;9237;48.590;8.854;2022-07-29T14:47:33;0.40;;;0.40;;
18224;SDS011;9237;48.590;8.854;2022-07-29T14:50:00;0.40;;;0.40;;
18224;SDS011;9237;48.590;8.854;2022-07-29T14:52:27;0.40;;;0.40;;
18224;SDS011;9237;48.590;8.854;2022-07-29T14:54:54;0.40;;;0.40;;
18224;SDS011;9237;48.590;8.854;2022-07-29T14:57:20;0.40;;;0.40;;
18224;SDS011;9237;48.590;8.854;2022-07-29T14:59:49;0.40;;;0.40;;
18224;SDS011;9237;48.590;8.854;2022-07-29T15:02:16;0.40;;;0.40;;
18224;SDS011;9237;48.590;8.854;2022-07-29T15:04:43;0.40;;;0.40;;
18224;SDS011;9237;48.590;8.854;2022-07-29T15:07:11;0.40;;;0.40;;
18224;SDS011;9237;48.590;8.854;2022-07-29T15:09:38;0.40;;;0.40;;
18224;SDS011;9237;48.590;8.854;2022-07-29T15:12:05;0.40;;;0.40;;
18224;SDS011;9237;48.590;8.854;2022-07-29T15:14:33;0.40;;;0.40;;
18224;SDS011;9237;48.590;8.854;2022-07-29T15:17:01;0.40;;;0.40;;
18224;SDS011;9237;48.590;8.854;2022-07-29T15:19:29;0.40;;;0.40;;
18224;SDS011;9237;48.590;8.854;2022-07-29T15:21:56;0.40;;;0.40;;
18224;SDS011;9237;48.590;8.854;2022-07-29T15:24:22;0.40;;;0.40;;
18224;SDS011;9237;48.590;8.854;2022-07-29T15:26:49;0.40;;;0.40;;
18224;SDS011;9237;48.590;8.854;2022-07-29T15:29:16;0.40;;;0.40;;
18224;SDS011;9237;48.590;8.854;2022-07-29T15:31:43;0.40;;;0.40;;